createdAt,value
2018-11-29T00:00:19.791Z,31.25
2018-11-29T00:02:54.571Z,29.90
2018-11-29T00:05:22.644Z,31.02
2018-11-29T00:07:50.659Z,31.48
2018-11-29T00:10:18.667Z,29.10
2018-11-29T00:12:46.804Z,33.65
2018-11-29T00:15:15.477Z,32.53
2018-11-29T00:17:43.560Z,30.00
2018-11-29T00:20:17.424Z,33.10
2018-11-29T00:22:46.299Z,27.50
2018-11-29T00:25:15.139Z,30.00
2018-11-29T00:27:43.515Z,30.70
2018-11-29T00:30:13.483Z,31.55
2018-11-29T00:32:41.544Z,34.53
2018-11-29T00:35:11.456Z,26.10
2018-11-29T00:37:39.507Z,32.98
2018-11-29T00:40:10.884Z,28.75
2018-11-29T00:42:38.908Z,31.82
2018-11-29T00:45:10.365Z,30.80
2018-11-29T00:47:38.519Z,32.53
2018-11-29T00:50:08.958Z,28.15
2018-11-29T00:52:37.900Z,30.90
2018-11-29T00:55:06.847Z,31.97
2018-11-29T00:57:34.865Z,26.68
2018-11-29T01:00:02.976Z,29.50
2018-11-29T01:02:31.052Z,29.98
2018-11-29T01:04:59.070Z,29.95
2018-11-29T01:07:27.136Z,28.87
2018-11-29T01:09:55.143Z,27.95
2018-11-29T01:12:23.156Z,28.40
2018-11-29T01:14:51.304Z,28.40
2018-11-29T01:17:19.325Z,27.13
2018-11-29T01:19:47.343Z,28.47
2018-11-29T01:22:15.429Z,27.25
2018-11-29T01:24:43.429Z,27.70
2018-11-29T01:27:11.449Z,29.60
2018-11-29T01:29:39.534Z,26.90
2018-11-29T01:32:07.539Z,27.58
2018-11-29T01:34:35.684Z,26.00
2018-11-29T01:37:03.744Z,26.10
2018-11-29T01:39:31.764Z,29.90
2018-11-29T01:41:59.890Z,27.17
2018-11-29T01:44:27.944Z,28.25
2018-11-29T01:46:55.963Z,28.32
2018-11-29T01:49:23.983Z,24.92
2018-11-29T01:51:52.046Z,28.35
2018-11-29T01:54:20.064Z,27.55
2018-11-29T01:56:48.108Z,26.17
2018-11-29T01:59:16.491Z,25.25
2018-11-29T02:01:44.508Z,27.00
2018-11-29T02:04:12.525Z,25.02
2018-11-29T02:06:40.699Z,26.02
2018-11-29T02:09:09.187Z,25.02
2018-11-29T02:11:37.194Z,27.22
2018-11-29T02:14:05.944Z,23.52
2018-11-29T02:16:34.023Z,23.83
2018-11-29T02:19:02.045Z,23.02
2018-11-29T02:21:30.122Z,24.85
2018-11-29T02:23:58.129Z,25.97
2018-11-29T02:26:26.166Z,24.52
2018-11-29T02:28:54.369Z,25.65
2018-11-29T02:31:22.386Z,21.23
2018-11-29T02:33:50.395Z,22.02
2018-11-29T02:36:18.520Z,23.65
2018-11-29T02:38:46.547Z,21.62
2018-11-29T02:41:14.629Z,22.98
2018-11-29T02:43:42.800Z,23.50
2018-11-29T02:46:10.820Z,23.18
2018-11-29T02:48:38.890Z,22.87
2018-11-29T02:51:06.910Z,19.55
2018-11-29T02:53:34.929Z,23.35
2018-11-29T02:56:09.667Z,22.48
2018-11-29T02:58:37.996Z,22.75
2018-11-29T03:01:06.022Z,21.20
2018-11-29T03:03:34.040Z,21.95
2018-11-29T03:06:02.108Z,22.70
2018-11-29T03:08:30.109Z,20.88
2018-11-29T03:10:58.129Z,21.55
2018-11-29T03:13:26.193Z,20.82
2018-11-29T03:15:54.209Z,19.92
2018-11-29T03:18:22.236Z,23.27
2018-11-29T03:20:50.328Z,22.67
2018-11-29T03:23:18.344Z,22.07
2018-11-29T03:25:46.452Z,20.25
2018-11-29T03:28:14.756Z,21.20
2018-11-29T03:30:42.866Z,19.98
2018-11-29T03:33:10.894Z,20.40
2018-11-29T03:35:44.314Z,21.50
2018-11-29T03:38:06.995Z,20.62
2018-11-29T03:40:35.016Z,20.50
2018-11-29T03:43:03.276Z,21.85
2018-11-29T03:45:31.289Z,20.35
2018-11-29T03:47:59.304Z,21.20
2018-11-29T03:50:27.373Z,22.02
2018-11-29T03:52:55.384Z,20.60
2018-11-29T03:55:23.399Z,20.32
2018-11-29T03:57:51.451Z,20.02
2018-11-29T04:00:19.528Z,18.05
2018-11-29T04:02:47.980Z,19.30
2018-11-29T04:05:16.007Z,20.50
2018-11-29T04:07:44.408Z,19.82
2018-11-29T04:10:13.408Z,20.02
2018-11-29T04:12:41.497Z,20.10
2018-11-29T04:15:10.820Z,21.50
2018-11-29T04:17:40.923Z,19.70
2018-11-29T04:20:10.305Z,20.17
2018-11-29T04:22:38.665Z,20.68
2018-11-29T04:25:08.279Z,21.02
2018-11-29T04:27:36.291Z,19.60
2018-11-29T04:30:04.623Z,20.05
2018-11-29T04:32:32.689Z,19.50
2018-11-29T04:35:00.764Z,20.45
2018-11-29T04:37:28.939Z,19.77
2018-11-29T04:39:57.007Z,21.48
2018-11-29T04:42:25.028Z,21.05
2018-11-29T04:44:53.125Z,21.73
2018-11-29T04:47:21.225Z,19.32
2018-11-29T04:49:49.244Z,21.97
2018-11-29T04:52:17.369Z,19.67
2018-11-29T04:54:47.256Z,20.88
2018-11-29T04:57:15.555Z,21.62
2018-11-29T04:59:43.617Z,20.82
2018-11-29T05:02:11.964Z,21.60
2018-11-29T05:04:39.735Z,18.12
2018-11-29T05:07:07.947Z,19.50
2018-11-29T05:09:35.948Z,22.75
2018-11-29T05:12:03.992Z,23.65
2018-11-29T05:14:32.164Z,21.70
2018-11-29T05:17:00.223Z,20.57
2018-11-29T05:19:28.199Z,21.68
2018-11-29T05:21:56.245Z,22.25
2018-11-29T05:24:24.345Z,23.73
2018-11-29T05:26:52.352Z,24.92
2018-11-29T05:29:20.383Z,21.93
2018-11-29T05:31:48.664Z,19.57
2018-11-29T05:34:16.836Z,16.62
2018-11-29T05:36:44.855Z,23.98
2018-11-29T05:39:12.908Z,20.35
2018-11-29T05:41:40.917Z,21.60
2018-11-29T05:44:09.023Z,23.80
2018-11-29T05:46:37.075Z,21.75
2018-11-29T05:49:05.096Z,23.42
2018-11-29T05:51:33.131Z,20.95
2018-11-29T05:54:01.180Z,22.27
2018-11-29T05:56:29.192Z,22.48
2018-11-29T05:58:57.209Z,21.37
2018-11-29T06:01:38.068Z,21.65
2018-11-29T06:04:06.299Z,19.92
2018-11-29T06:06:34.307Z,23.18
2018-11-29T06:09:02.396Z,20.65
2018-11-29T06:11:30.509Z,23.62
2018-11-29T06:13:58.507Z,20.92
2018-11-29T06:16:26.566Z,21.77
2018-11-29T06:18:54.576Z,22.58
2018-11-29T06:21:22.583Z,24.57
2018-11-29T06:23:50.628Z,21.65
2018-11-29T06:26:18.712Z,20.85
2018-11-29T06:28:46.769Z,21.27
2018-11-29T06:31:15.104Z,22.95
2018-11-29T06:33:43.124Z,21.42
2018-11-29T06:36:11.430Z,22.32
2018-11-29T06:38:39.436Z,21.73
2018-11-29T06:41:07.469Z,20.77
2018-11-29T06:43:35.846Z,21.10
2018-11-29T06:46:03.912Z,22.10
2018-11-29T06:48:31.988Z,24.00
2018-11-29T06:51:00.060Z,22.50
2018-11-29T06:53:33.508Z,24.37
2018-11-29T06:56:01.570Z,23.62
2018-11-29T06:58:29.580Z,23.65
2018-11-29T07:00:57.588Z,22.32
2018-11-29T07:03:28.835Z,21.55
2018-11-29T07:05:53.784Z,21.35
2018-11-29T07:08:22.193Z,22.58
2018-11-29T07:10:50.516Z,23.35
2018-11-29T07:13:18.584Z,22.73
2018-11-29T07:15:46.683Z,22.15
2018-11-29T07:18:14.679Z,20.40
2018-11-29T07:20:47.343Z,21.87
2018-11-29T07:23:15.344Z,23.70
2018-11-29T07:25:43.344Z,22.15
2018-11-29T07:28:11.599Z,22.17
2018-11-29T07:30:39.644Z,22.82
2018-11-29T07:33:07.657Z,24.90
2018-11-29T07:35:35.897Z,19.50
2018-11-29T07:38:03.963Z,22.48
2018-11-29T07:40:31.993Z,23.20
2018-11-29T07:43:00.056Z,21.02
2018-11-29T07:45:28.060Z,23.22
2018-11-29T07:47:56.068Z,22.70
2018-11-29T07:50:24.216Z,25.27
2018-11-29T07:52:52.233Z,19.25
2018-11-29T07:55:21.213Z,22.52
2018-11-29T07:57:51.349Z,25.90
2018-11-29T08:00:19.355Z,24.10
2018-11-29T08:02:47.448Z,24.65
2018-11-29T08:05:15.792Z,23.52
2018-11-29T08:07:47.554Z,20.72
2018-11-29T08:10:17.961Z,22.13
2018-11-29T08:12:46.183Z,22.05
2018-11-29T08:15:15.385Z,20.72
2018-11-29T08:17:43.447Z,23.00
2018-11-29T08:20:15.467Z,23.10
2018-11-29T08:22:43.588Z,20.50
2018-11-29T08:25:11.760Z,22.93
2018-11-29T08:27:39.909Z,22.15
2018-11-29T08:30:13.336Z,25.45
2018-11-29T08:32:41.404Z,22.60
2018-11-29T08:35:11.533Z,21.97
2018-11-29T08:37:40.419Z,23.05
2018-11-29T08:40:10.054Z,22.05
2018-11-29T08:42:38.072Z,25.70
2018-11-29T08:45:08.020Z,23.73
2018-11-29T08:47:36.280Z,24.10
2018-11-29T08:50:04.871Z,24.47
2018-11-29T08:52:32.880Z,22.82
2018-11-29T08:55:00.948Z,24.57
2018-11-29T08:57:28.956Z,22.00
2018-11-29T08:59:56.964Z,23.50
2018-11-29T09:02:25.231Z,23.02
2018-11-29T09:04:53.252Z,20.20
2018-11-29T09:07:21.363Z,19.92
2018-11-29T09:09:49.544Z,21.25
2018-11-29T09:12:17.553Z,20.02
2018-11-29T09:14:45.580Z,21.30
2018-11-29T09:17:13.765Z,21.70
2018-11-29T09:19:41.782Z,21.15
2018-11-29T09:22:09.787Z,23.47
2018-11-29T09:24:37.872Z,22.15
2018-11-29T09:27:06.148Z,22.30
2018-11-29T09:29:34.157Z,24.52
2018-11-29T09:32:02.243Z,21.73
2018-11-29T09:34:30.252Z,21.25
2018-11-29T09:36:58.252Z,20.97
2018-11-29T09:39:26.395Z,22.02
2018-11-29T09:41:54.468Z,21.33
2018-11-29T09:44:22.482Z,20.40
2018-11-29T09:46:50.526Z,23.40
2018-11-29T09:49:18.582Z,21.57
2018-11-29T09:51:46.591Z,20.72
2018-11-29T09:54:14.598Z,26.20
2018-11-29T09:56:43.004Z,22.37
2018-11-29T09:59:11.037Z,22.85
2018-11-29T10:01:39.040Z,20.72
2018-11-29T10:04:07.096Z,22.98
2018-11-29T10:06:35.104Z,21.93
2018-11-29T10:09:03.140Z,19.70
2018-11-29T10:11:31.198Z,22.15
2018-11-29T10:13:59.304Z,21.55
2018-11-29T10:16:27.309Z,21.40
2018-11-29T10:18:55.364Z,22.05
2018-11-29T10:21:23.416Z,22.87
2018-11-29T10:23:51.428Z,21.35
2018-11-29T10:26:20.796Z,21.73
2018-11-29T10:28:49.163Z,18.70
2018-11-29T10:31:17.184Z,22.20
2018-11-29T10:33:45.208Z,21.33
2018-11-29T10:36:13.388Z,20.65
2018-11-29T10:38:41.448Z,23.05
2018-11-29T10:41:09.468Z,21.17
2018-11-29T10:43:37.694Z,21.48
2018-11-29T10:46:06.388Z,21.87
2018-11-29T10:48:34.417Z,19.82
2018-11-29T10:51:02.480Z,21.50
2018-11-29T10:53:36.319Z,19.12
2018-11-29T10:55:58.578Z,22.20
2018-11-29T10:58:26.648Z,19.60
2018-11-29T11:01:00.324Z,19.90
2018-11-29T11:03:28.388Z,20.60
2018-11-29T11:05:56.404Z,19.77
2018-11-29T11:08:24.429Z,17.30
2018-11-29T11:10:52.492Z,18.77
2018-11-29T11:13:20.581Z,19.25
2018-11-29T11:15:48.609Z,17.95
2018-11-29T11:18:17.109Z,17.87
2018-11-29T11:20:45.124Z,17.37
2018-11-29T11:23:13.148Z,16.50
2018-11-29T11:25:41.228Z,17.33
2018-11-29T11:28:10.048Z,16.60
2018-11-29T11:30:39.872Z,14.98
2018-11-29T11:33:08.036Z,15.53
2018-11-29T11:35:36.103Z,14.43
2018-11-29T11:38:04.276Z,15.60
2018-11-29T11:40:32.298Z,15.13
2018-11-29T11:43:05.143Z,14.75
2018-11-29T11:45:28.510Z,14.33
2018-11-29T11:48:03.017Z,14.73
2018-11-29T11:50:25.069Z,14.90
2018-11-29T11:52:54.204Z,14.65
2018-11-29T11:55:22.229Z,15.10
2018-11-29T11:57:50.283Z,15.83
2018-11-29T12:00:20.272Z,15.32
2018-11-29T12:02:50.640Z,16.73
2018-11-29T12:05:18.700Z,17.25
2018-11-29T12:07:46.757Z,15.98
2018-11-29T12:10:15.560Z,15.03
2018-11-29T12:12:43.594Z,17.57
2018-11-29T12:15:13.599Z,17.10
2018-11-29T12:17:42.596Z,16.57
2018-11-29T12:20:13.660Z,16.62
2018-11-29T12:22:41.759Z,17.52
2018-11-29T12:25:11.859Z,15.28
2018-11-29T12:27:39.908Z,15.93
2018-11-29T12:30:43.807Z,17.17
2018-11-29T12:33:11.842Z,15.08
2018-11-29T12:35:39.906Z,15.45
2018-11-29T12:38:07.960Z,15.90
2018-11-29T12:40:35.976Z,14.73
2018-11-29T12:43:04.296Z,16.07
2018-11-29T12:45:32.256Z,15.98
2018-11-29T12:48:01.289Z,17.05
2018-11-29T12:50:29.457Z,15.90
2018-11-29T12:52:57.472Z,16.30
2018-11-29T12:55:26.563Z,15.88
2018-11-29T12:58:05.471Z,16.27
2018-11-29T13:00:23.488Z,13.93
2018-11-29T13:02:53.666Z,15.28
2018-11-29T13:05:21.736Z,14.80
2018-11-29T13:07:49.844Z,14.73
2018-11-29T13:10:19.044Z,18.32
2018-11-29T13:12:47.099Z,17.07
2018-11-29T13:15:20.202Z,17.65
2018-11-29T13:17:48.272Z,17.53
2018-11-29T13:20:17.081Z,19.37
2018-11-29T13:22:45.100Z,18.02
2018-11-29T13:25:18.245Z,17.47
2018-11-29T13:27:46.616Z,16.30
2018-11-29T13:30:17.687Z,18.47
2018-11-29T13:32:45.989Z,18.32
2018-11-29T13:35:17.473Z,17.23
2018-11-29T13:37:52.168Z,17.85
2018-11-29T13:40:20.259Z,18.87
2018-11-29T13:42:48.372Z,17.62
2018-11-29T13:45:16.380Z,18.87
2018-11-29T13:47:44.399Z,17.75
2018-11-29T13:50:14.329Z,18.57
2018-11-29T13:52:42.484Z,19.90
2018-11-29T13:55:12.591Z,18.90
2018-11-29T13:57:41.229Z,20.40
2018-11-29T14:00:15.596Z,16.77
2018-11-29T14:02:47.014Z,18.98
2018-11-29T14:05:12.597Z,18.03
2018-11-29T14:07:40.831Z,17.77
2018-11-29T14:10:16.911Z,18.42
2018-11-29T14:12:45.893Z,19.70
2018-11-29T14:15:17.042Z,19.07
2018-11-29T14:17:45.136Z,20.70
2018-11-29T14:20:13.784Z,19.62
2018-11-29T14:22:41.832Z,20.25
2018-11-29T14:25:12.703Z,18.80
2018-11-29T14:27:41.436Z,19.48
2018-11-29T14:30:16.606Z,20.50
2018-11-29T14:32:44.676Z,20.12
2018-11-29T14:35:12.691Z,19.02
2018-11-29T14:37:40.775Z,20.30
2018-11-29T14:40:15.061Z,19.48
2018-11-29T14:42:43.128Z,19.95
2018-11-29T14:45:14.968Z,19.42
2018-11-29T14:47:43.025Z,19.48
2018-11-29T14:50:17.444Z,18.48
2018-11-29T14:52:45.752Z,21.68
2018-11-29T14:55:13.764Z,21.65
2018-11-29T14:57:41.780Z,20.75
2018-11-29T15:00:11.048Z,20.92
2018-11-29T15:02:39.766Z,22.30
2018-11-29T15:05:17.345Z,20.27
2018-11-29T15:07:45.403Z,20.92
2018-11-29T15:10:13.497Z,21.57
2018-11-29T15:12:41.575Z,21.82
2018-11-29T15:15:10.591Z,22.45
2018-11-29T15:17:39.280Z,23.92
2018-11-29T15:20:17.431Z,21.95
2018-11-29T15:22:45.450Z,22.98
2018-11-29T15:25:13.544Z,25.10
2018-11-29T15:27:41.695Z,22.93
2018-11-29T15:30:11.503Z,22.60
2018-11-29T15:32:39.589Z,21.60
2018-11-29T15:35:08.426Z,21.93
2018-11-29T15:37:36.685Z,22.48
2018-11-29T15:40:07.212Z,22.10
2018-11-29T15:42:35.278Z,21.77
2018-11-29T15:45:03.388Z,22.07
2018-11-29T15:47:31.405Z,23.30
2018-11-29T15:49:59.555Z,22.32
2018-11-29T15:52:27.576Z,21.82
2018-11-29T15:54:55.695Z,23.30
2018-11-29T15:57:23.795Z,23.18
2018-11-29T15:59:51.825Z,22.25
2018-11-29T16:02:19.844Z,22.40
2018-11-29T16:04:48.019Z,24.55
2018-11-29T16:07:16.059Z,23.52
2018-11-29T16:09:44.079Z,24.05
2018-11-29T16:12:12.140Z,22.07
2018-11-29T16:14:43.416Z,21.82
2018-11-29T16:17:14.965Z,20.55
2018-11-29T16:19:42.977Z,22.37
2018-11-29T16:22:11.100Z,21.42
2018-11-29T16:24:39.169Z,21.52
2018-11-29T16:27:07.200Z,21.12
2018-11-29T16:29:35.248Z,20.10
2018-11-29T16:32:03.621Z,21.25
2018-11-29T16:34:31.641Z,25.35
2018-11-29T16:36:59.654Z,21.80
2018-11-29T16:39:27.784Z,20.75
2018-11-29T16:41:55.787Z,21.70
2018-11-29T16:44:23.875Z,19.98
2018-11-29T16:46:51.888Z,21.30
2018-11-29T16:49:19.903Z,23.55
2018-11-29T16:51:47.965Z,21.75
2018-11-29T16:54:15.976Z,21.23
2018-11-29T16:56:43.996Z,23.15
2018-11-29T16:59:12.208Z,21.40
2018-11-29T17:01:40.236Z,21.57
2018-11-29T17:04:08.328Z,20.95
2018-11-29T17:06:36.384Z,23.52
2018-11-29T17:09:08.039Z,21.90
2018-11-29T17:11:36.356Z,23.15
2018-11-29T17:14:05.222Z,22.80
2018-11-29T17:16:33.239Z,20.80
2018-11-29T17:19:01.380Z,20.05
2018-11-29T17:21:29.384Z,22.15
2018-11-29T17:23:57.440Z,22.42
2018-11-29T17:26:25.799Z,23.35
2018-11-29T17:28:53.872Z,21.25
2018-11-29T17:31:21.890Z,20.62
2018-11-29T17:33:49.946Z,23.87
2018-11-29T17:36:17.960Z,21.30
2018-11-29T17:38:46.063Z,20.15
2018-11-29T17:41:14.116Z,18.73
2018-11-29T17:43:42.204Z,22.00
2018-11-29T17:46:10.207Z,20.12
2018-11-29T17:48:38.276Z,21.90
2018-11-29T17:51:06.316Z,21.25
2018-11-29T17:53:34.388Z,22.90
2018-11-29T17:56:02.439Z,23.50
2018-11-29T17:58:30.452Z,20.55
2018-11-29T18:00:58.504Z,21.05
2018-11-29T18:03:26.519Z,20.20
2018-11-29T18:05:54.639Z,22.58
2018-11-29T18:08:22.696Z,20.90
2018-11-29T18:10:53.144Z,21.05
2018-11-29T18:13:27.088Z,20.27
2018-11-29T18:15:55.162Z,19.82
2018-11-29T18:18:23.176Z,17.42
2018-11-29T18:20:51.371Z,17.27
2018-11-29T18:23:19.419Z,20.48
2018-11-29T18:25:47.436Z,20.88
2018-11-29T18:28:15.460Z,18.95
2018-11-29T18:30:43.518Z,18.40
2018-11-29T18:33:11.544Z,18.73
2018-11-29T18:35:39.612Z,19.67
2018-11-29T18:38:07.942Z,19.75
2018-11-29T18:40:36.024Z,20.57
2018-11-29T18:43:04.732Z,18.40
2018-11-29T18:45:32.876Z,19.92
2018-11-29T18:48:01.074Z,20.20
2018-11-29T18:50:29.080Z,19.70
2018-11-29T18:52:57.187Z,19.40
2018-11-29T18:55:26.094Z,18.85
2018-11-29T18:57:55.415Z,19.82
2018-11-29T19:00:24.816Z,20.60
2018-11-29T19:02:56.984Z,17.80
2018-11-29T19:05:21.057Z,18.23
2018-11-29T19:07:49.070Z,19.25
2018-11-29T19:10:17.861Z,18.05
2018-11-29T19:12:56.743Z,19.57
2018-11-29T19:15:24.796Z,20.02
2018-11-29T19:17:52.884Z,20.65
2018-11-29T19:20:20.911Z,20.88
2018-11-29T19:22:49.048Z,20.37
2018-11-29T19:25:18.027Z,20.85
2018-11-29T19:27:46.092Z,18.50
2018-11-29T19:30:16.471Z,21.70
2018-11-29T19:32:45.739Z,17.67
2018-11-29T19:35:13.764Z,17.05
2018-11-29T19:37:41.831Z,18.90
2018-11-29T19:40:14.399Z,21.42
2018-11-29T19:42:42.603Z,19.02
2018-11-29T19:45:12.015Z,19.35
2018-11-29T19:47:40.574Z,17.82
2018-11-29T19:50:10.971Z,18.27
2018-11-29T19:52:38.980Z,16.85
2018-11-29T19:55:09.115Z,18.02
2018-11-29T19:57:37.279Z,17.25
2018-11-29T20:00:07.404Z,17.60
2018-11-29T20:02:35.472Z,17.57
2018-11-29T20:05:03.955Z,17.37
2018-11-29T20:07:32.023Z,15.25
2018-11-29T20:10:00.036Z,17.70
2018-11-29T20:12:28.097Z,21.57
2018-11-29T20:14:56.113Z,16.32
2018-11-29T20:17:24.128Z,17.17
2018-11-29T20:19:52.283Z,17.42
2018-11-29T20:22:20.476Z,20.32
2018-11-29T20:24:48.487Z,20.30
2018-11-29T20:27:16.604Z,18.50
2018-11-29T20:29:44.632Z,17.80
2018-11-29T20:32:19.243Z,18.40
2018-11-29T20:34:47.297Z,15.15
2018-11-29T20:37:15.495Z,17.50
2018-11-29T20:39:43.516Z,18.15
2018-11-29T20:42:11.556Z,18.15
2018-11-29T20:44:39.628Z,17.57
2018-11-29T20:47:07.701Z,17.67
2018-11-29T20:49:35.716Z,17.32
2018-11-29T20:52:03.737Z,17.07
2018-11-29T20:54:31.804Z,16.15
2018-11-29T20:56:59.824Z,17.02
2018-11-29T20:59:27.900Z,16.52
2018-11-29T21:01:55.917Z,17.60
2018-11-29T21:04:23.944Z,17.62
2018-11-29T21:06:52.115Z,13.68
2018-11-29T21:09:20.131Z,14.73
2018-11-29T21:11:48.244Z,14.35
2018-11-29T21:14:16.408Z,15.93
2018-11-29T21:16:44.424Z,16.23
2018-11-29T21:19:12.441Z,16.95
2018-11-29T21:21:40.553Z,19.62
2018-11-29T21:24:08.568Z,16.52
2018-11-29T21:26:36.578Z,15.03
2018-11-29T21:29:04.804Z,14.45
2018-11-29T21:31:32.836Z,17.80
2018-11-29T21:34:00.854Z,15.45
2018-11-29T21:36:29.224Z,16.45
2018-11-29T21:38:57.241Z,14.40
2018-11-29T21:41:25.399Z,17.07
2018-11-29T21:43:53.478Z,17.12
2018-11-29T21:46:21.539Z,17.65
2018-11-29T21:48:49.624Z,15.13
2018-11-29T21:51:17.751Z,16.35
2018-11-29T21:53:45.776Z,15.60
2018-11-29T21:56:13.796Z,16.05
2018-11-29T21:58:41.872Z,17.92
2018-11-29T22:01:10.024Z,17.98
2018-11-29T22:03:38.084Z,15.32
2018-11-29T22:06:06.104Z,15.63
2018-11-29T22:08:34.264Z,14.78
2018-11-29T22:11:02.364Z,13.15
2018-11-29T22:13:31.300Z,14.53
2018-11-29T22:15:59.364Z,18.02
2018-11-29T22:18:27.396Z,16.48
2018-11-29T22:20:58.691Z,15.35
2018-11-29T22:23:26.685Z,16.67
2018-11-29T22:25:56.188Z,14.80
2018-11-29T22:28:24.222Z,15.13
2018-11-29T22:30:52.512Z,14.70
2018-11-29T22:33:20.530Z,15.70
2018-11-29T22:35:48.585Z,13.98
2018-11-29T22:38:16.623Z,14.10
2018-11-29T22:40:44.697Z,14.30
2018-11-29T22:43:12.763Z,14.63
2018-11-29T22:45:41.064Z,13.85
2018-11-29T22:48:09.136Z,14.87
2018-11-29T22:50:37.276Z,13.18
2018-11-29T22:53:05.944Z,16.80
2018-11-29T22:55:33.944Z,16.42
2018-11-29T22:58:02.058Z,13.98
2018-11-29T23:00:35.645Z,13.90
2018-11-29T23:03:03.713Z,13.48
2018-11-29T23:05:31.747Z,14.28
2018-11-29T23:07:59.812Z,13.90
2018-11-29T23:10:27.931Z,12.60
2018-11-29T23:12:55.964Z,14.25
2018-11-29T23:15:24.024Z,12.50
2018-11-29T23:17:52.135Z,12.65
2018-11-29T23:20:20.140Z,14.03
2018-11-29T23:22:48.280Z,12.50
2018-11-29T23:25:16.501Z,14.00
2018-11-29T23:27:44.519Z,11.93
2018-11-29T23:30:14.877Z,13.00
2018-11-29T23:32:43.340Z,12.15
2018-11-29T23:35:12.136Z,11.93
2018-11-29T23:37:40.202Z,11.53
2018-11-29T23:40:11.903Z,12.40
2018-11-29T23:42:41.416Z,10.50
2018-11-29T23:45:10.431Z,12.18
2018-11-29T23:47:38.515Z,11.35
2018-11-29T23:50:11.920Z,11.73
2018-11-29T23:52:39.940Z,12.40
2018-11-29T23:55:09.632Z,12.00
2018-11-29T23:57:37.968Z,11.88
